Time;durP1;ratioP1;P1;durP2;ratioP2;P2;SDS_P1;SDS_P2;PMS_P1;PMS_P2;Temp;Humidity;BMP_temperature;BMP_pressure;BME280_temperature;BME280_humidity;BME280_pressure;Samples;Min_cycle;Max_cycle;Signal;HPM_P1;HPM_P2
2021/09/25 00:02:10;;;;;;;10.80;4.50;;;;;;;11.24;60.83;100141.41;117240;1182;24201;-59
2021/09/25 00:04:38;;;;;;;7.30;4.50;;;;;;;11.25;60.73;100141.77;117199;1182;23463;-59
2021/09/25 00:07:06;;;;;;;9.70;4.30;;;;;;;11.24;60.74;100140.36;117326;1180;22960;-59
2021/09/25 00:09:34;;;;;;;9.60;4.50;;;;;;;11.25;60.84;100144.58;117270;1180;21845;-59
2021/09/25 00:12:03;;;;;;;9.70;4.20;;;;;;;11.26;60.66;100147.19;117302;1185;21858;-59
2021/09/25 00:14:31;;;;;;;10.30;4.70;;;;;;;11.26;60.70;100153.48;117295;1180;21864;-59
2021/09/25 00:16:59;;;;;;;9.90;4.30;;;;;;;11.25;60.55;100154.59;117256;1182;23556;-59
2021/09/25 00:19:27;;;;;;;8.30;4.30;;;;;;;11.22;60.74;100154.27;117234;1185;23567;-59
2021/09/25 00:21:56;;;;;;;11.00;4.10;;;;;;;11.20;60.71;100150.27;117195;1185;21869;-59
2021/09/25 00:24:25;;;;;;;6.20;3.70;;;;;;;11.19;60.82;100150.83;117321;1189;23485;-59
2021/09/25 00:26:53;;;;;;;7.90;3.80;;;;;;;11.16;60.64;100165.27;117321;1186;21857;-59
2021/09/25 00:29:21;;;;;;;10.50;3.90;;;;;;;11.10;60.51;100176.77;117290;1185;21874;-59
2021/09/25 00:31:50;;;;;;;6.30;3.90;;;;;;;11.03;60.66;100177.08;117328;1186;21881;-59
2021/09/25 00:34:18;;;;;;;6.50;4.30;;;;;;;10.94;60.58;100173.73;117291;1186;23579;-59
2021/09/25 00:36:47;;;;;;;8.40;3.90;;;;;;;10.86;60.51;100170.52;117132;1186;21859;-59
2021/09/25 00:39:15;;;;;;;10.30;5.20;;;;;;;10.81;60.59;100176.23;117315;1189;21858;-59
2021/09/25 00:41:43;;;;;;;11.80;3.70;;;;;;;10.77;60.51;100176.84;117325;1185;21855;-59
2021/09/25 00:44:11;;;;;;;6.90;3.90;;;;;;;10.72;60.63;100174.27;117193;1185;21873;-59
2021/09/25 00:46:40;;;;;;;8.40;4.40;;;;;;;10.69;60.52;100170.47;117157;1186;23545;-59
2021/09/25 00:49:08;;;;;;;9.70;4.30;;;;;;;10.66;60.60;100167.87;117239;1185;21844;-59
2021/09/25 00:51:36;;;;;;;9.30;5.60;;;;;;;10.65;60.39;100171.56;117180;1182;21847;-59
2021/09/25 00:54:04;;;;;;;8.80;4.60;;;;;;;10.65;60.70;100174.73;117229;1182;21858;-59
2021/09/25 00:56:32;;;;;;;11.70;5.50;;;;;;;10.64;60.51;100177.02;117342;1186;21857;-61
2021/09/25 00:59:00;;;;;;;12.00;5.40;;;;;;;10.64;60.60;100181.94;117178;1187;21866;-59
2021/09/25 01:01:28;;;;;;;10.40;4.70;;;;;;;10.64;60.55;100182.82;117188;1186;21855;-59
2021/09/25 01:03:57;;;;;;;9.60;4.90;;;;;;;10.63;60.54;100179.15;117260;1185;23460;-59
2021/09/25 01:06:25;;;;;;;10.00;5.40;;;;;;;10.63;60.52;100178.44;117158;1183;22659;-59
2021/09/25 01:08:53;;;;;;;6.70;4.60;;;;;;;10.66;60.54;100179.98;117280;1189;21853;-59
2021/09/25 01:11:21;;;;;;;8.90;5.10;;;;;;;10.66;60.55;100176.30;117257;1185;21985;-59
2021/09/25 01:13:50;;;;;;;11.50;5.00;;;;;;;10.65;60.60;100177.89;117330;1188;21865;-59
2021/09/25 01:16:19;;;;;;;9.00;4.90;;;;;;;10.65;60.73;100181.58;117310;1182;21865;-59
2021/09/25 01:18:47;;;;;;;11.80;6.40;;;;;;;10.64;60.68;100189.13;117302;1180;22911;-59
2021/09/25 01:21:16;;;;;;;9.70;4.90;;;;;;;10.66;60.54;100196.48;117342;1186;21849;-59
2021/09/25 01:23:44;;;;;;;8.20;4.80;;;;;;;10.67;60.80;100195.92;117295;1186;21891;-59
2021/09/25 01:26:12;;;;;;;11.10;5.40;;;;;;;10.71;60.85;100195.52;117347;1182;22169;-59
2021/09/25 01:28:41;;;;;;;10.30;5.00;;;;;;;10.75;60.61;100202.47;117229;1185;23876;-59
2021/09/25 01:31:10;;;;;;;9.50;4.90;;;;;;;10.74;60.61;100203.73;117328;1185;21867;-59
2021/09/25 01:33:43;;;;;;;8.00;4.70;;;;;;;10.70;60.91;100207.98;117261;1183;21862;-59
2021/09/25 01:36:12;;;;;;;10.90;4.90;;;;;;;10.70;60.73;100214.14;117263;1186;21855;-59
2021/09/25 01:38:40;;;;;;;12.20;5.40;;;;;;;10.67;60.76;100219.44;117324;1186;21860;-59
2021/09/25 01:41:09;;;;;;;9.20;4.90;;;;;;;10.66;60.83;100222.25;117259;1186;21867;-59
2021/09/25 01:43:37;;;;;;;8.40;4.50;;;;;;;10.63;60.85;100220.02;117311;1186;21858;-59
2021/09/25 01:46:05;;;;;;;9.90;5.20;;;;;;;10.60;60.96;100218.70;117316;1186;23557;-59
2021/09/25 01:48:33;;;;;;;8.70;5.30;;;;;;;10.58;60.76;100218.52;117274;1183;21892;-59
2021/09/25 01:51:01;;;;;;;7.50;4.70;;;;;;;10.56;60.91;100226.63;117311;1185;21857;-59
2021/09/25 01:53:29;;;;;;;9.80;5.20;;;;;;;10.54;60.90;100224.55;117223;1182;22846;-59
2021/09/25 01:56:05;;;;;;;13.30;5.90;;;;;;;10.53;60.79;100225.10;117299;1185;21866;-59
2021/09/25 01:58:33;;;;;;;7.70;4.70;;;;;;;10.49;60.88;100224.62;117349;1185;23640;-59
2021/09/25 02:01:03;;;;;;;10.20;5.40;;;;;;;10.46;60.80;100225.55;117392;1186;23556;-58
2021/09/25 02:03:35;;;;;;;12.50;6.00;;;;;;;10.49;60.70;100221.12;117287;1182;21853;-59
2021/09/25 02:06:09;;;;;;;12.40;5.60;;;;;;;10.47;60.66;100227.99;117310;1186;21859;-59
2021/09/25 02:08:38;;;;;;;11.00;5.10;;;;;;;10.46;60.70;100232.91;117315;1186;21842;-59
2021/09/25 02:11:07;;;;;;;11.00;5.00;;;;;;;10.46;60.68;100231.67;117336;1186;21962;-60
2021/09/25 02:13:35;;;;;;;13.30;4.80;;;;;;;10.47;60.79;100236.23;117247;1183;23556;-60
2021/09/25 02:16:03;;;;;;;13.00;5.10;;;;;;;10.49;60.67;100237.08;117322;1186;21899;-59
2021/09/25 02:18:32;;;;;;;9.80;5.00;;;;;;;10.51;60.63;100238.30;117384;1183;23602;-59
2021/09/25 02:21:00;;;;;;;13.50;5.80;;;;;;;10.54;60.66;100244.55;117274;1186;21911;-59
2021/09/25 02:23:31;;;;;;;10.00;5.20;;;;;;;10.57;60.47;100241.71;117244;1186;21848;-59
2021/09/25 02:26:01;;;;;;;8.40;5.20;;;;;;;10.59;60.54;100244.49;117328;1186;23567;-62
2021/09/25 02:28:29;;;;;;;11.00;5.70;;;;;;;10.59;60.59;100247.48;117275;1182;21860;-62
2021/09/25 02:30:57;;;;;;;11.70;5.20;;;;;;;10.58;60.53;100251.88;117328;1186;21858;-59
2021/09/25 02:33:26;;;;;;;9.30;4.80;;;;;;;10.62;60.53;100250.93;117329;1185;23526;-59
2021/09/25 02:35:54;;;;;;;9.10;5.20;;;;;;;10.60;60.41;100249.73;117277;1185;23560;-62
2021/09/25 02:38:22;;;;;;;10.20;5.00;;;;;;;10.59;60.49;100247.83;117279;1184;21978;-59
2021/09/25 02:40:50;;;;;;;12.00;5.30;;;;;;;10.59;60.54;100244.16;117253;1185;23561;-62
2021/09/25 02:43:18;;;;;;;9.70;5.10;;;;;;;10.59;60.45;100245.38;117190;1183;21909;-59
2021/09/25 02:45:46;;;;;;;8.30;4.90;;;;;;;10.57;60.39;100246.27;117177;1179;22949;-59
2021/09/25 02:48:14;;;;;;;8.10;4.60;;;;;;;10.55;60.60;100250.33;117113;1185;21875;-59
2021/09/25 02:50:42;;;;;;;10.40;4.50;;;;;;;10.53;60.43;100254.91;117358;1185;23544;-59
2021/09/25 02:53:11;;;;;;;11.90;4.70;;;;;;;10.52;60.38;100258.09;117137;1183;21858;-59
2021/09/25 02:55:40;;;;;;;9.20;4.60;;;;;;;10.51;60.44;100254.78;117144;1182;21857;-59
2021/09/25 02:58:08;;;;;;;12.10;5.30;;;;;;;10.48;60.62;100254.63;117798;1185;21874;-59
2021/09/25 03:00:36;;;;;;;10.00;4.80;;;;;;;10.46;60.59;100251.86;117150;1185;23438;-59
2021/09/25 03:03:04;;;;;;;9.90;4.60;;;;;;;10.38;60.68;100246.68;117254;1184;22727;-59
2021/09/25 03:05:33;;;;;;;8.70;4.70;;;;;;;10.35;60.59;100253.20;117139;1186;21899;-59
2021/09/25 03:08:01;;;;;;;9.30;6.00;;;;;;;10.32;60.64;100257.80;117231;1185;21854;-59
2021/09/25 03:10:29;;;;;;;9.20;5.30;;;;;;;10.29;60.76;100263.63;117178;1185;21911;-59
2021/09/25 03:12:57;;;;;;;13.30;5.00;;;;;;;10.25;60.66;100269.98;117255;1182;21864;-60
2021/09/25 03:15:25;;;;;;;10.90;4.90;;;;;;;10.22;60.74;100275.27;117233;1189;21901;-59
2021/09/25 03:17:53;;;;;;;6.20;4.40;;;;;;;10.16;60.61;100278.88;117306;1182;23544;-63
2021/09/25 03:20:21;;;;;;;8.70;4.70;;;;;;;10.14;60.77;100284.88;117313;1188;21857;-59
2021/09/25 03:22:49;;;;;;;12.10;5.80;;;;;;;10.14;60.67;100287.48;117386;1186;21898;-59
2021/09/25 03:25:17;;;;;;;9.10;4.50;;;;;;;10.14;60.74;100295.56;117296;1184;23545;-64
2021/09/25 03:27:46;;;;;;;10.50;5.40;;;;;;;10.13;60.85;100303.11;117270;1185;23557;-63
2021/09/25 03:30:15;;;;;;;7.10;4.80;;;;;;;10.14;60.94;100300.30;117331;1186;23464;-63
2021/09/25 03:32:43;;;;;;;11.50;4.90;;;;;;;10.16;60.85;100304.83;117330;1185;21867;-64
2021/09/25 03:35:11;;;;;;;17.10;4.90;;;;;;;10.20;60.87;100305.83;117363;1183;21867;-63
2021/09/25 03:41:54;;;;;;;9.50;4.40;;;;;;;10.37;61.00;100317.39;117267;1186;21867;-60
2021/09/25 03:44:22;;;;;;;13.40;5.40;;;;;;;10.47;61.00;100321.65;117308;1186;21858;-59
2021/09/25 03:46:50;;;;;;;12.90;5.90;;;;;;;10.62;60.80;100326.39;117331;1186;21870;-59
2021/09/25 03:49:18;;;;;;;9.20;4.80;;;;;;;10.72;60.89;100328.36;117252;1180;21877;-59
2021/09/25 03:51:47;;;;;;;10.30;4.80;;;;;;;10.82;60.79;100332.26;117339;1185;21849;-59
2021/09/25 03:54:15;;;;;;;9.70;5.10;;;;;;;10.91;60.92;100333.00;117321;1185;21982;-60
2021/09/25 03:56:43;;;;;;;10.30;5.60;;;;;;;10.99;60.90;100336.42;117359;1185;21865;-59
2021/09/25 03:59:11;;;;;;;12.00;5.90;;;;;;;11.05;60.96;100331.39;117318;1186;23634;-59
2021/09/25 04:01:42;;;;;;;11.60;6.10;;;;;;;11.13;60.86;100342.52;117315;1186;21865;-59
2021/09/25 04:04:10;;;;;;;9.80;5.40;;;;;;;11.19;61.01;100342.96;117369;1186;23541;-59
2021/09/25 04:06:39;;;;;;;10.90;5.00;;;;;;;11.23;60.91;100346.76;117308;1182;23583;-59
2021/09/25 04:09:07;;;;;;;12.60;5.40;;;;;;;11.30;60.85;100350.67;117241;1186;21882;-59
2021/09/25 04:11:35;;;;;;;8.80;5.00;;;;;;;11.34;60.89;100358.70;117347;1182;21856;-59
2021/09/25 04:14:03;;;;;;;10.20;5.00;;;;;;;11.37;61.03;100362.89;117294;1186;21854;-59
2021/09/25 04:16:31;;;;;;;11.00;5.80;;;;;;;11.41;60.87;100369.66;117258;1189;21858;-58
2021/09/25 04:18:59;;;;;;;10.40;5.10;;;;;;;11.44;60.87;100371.91;117239;1186;22289;-59
2021/09/25 04:21:29;;;;;;;9.40;5.30;;;;;;;11.50;60.85;100376.73;117170;1186;21878;-59
2021/09/25 04:23:58;;;;;;;12.00;5.20;;;;;;;11.59;60.67;100377.45;117324;1186;21874;-59
2021/09/25 04:26:26;;;;;;;12.10;5.30;;;;;;;11.64;60.63;100383.18;117326;1183;22902;-59
2021/09/25 04:28:56;;;;;;;9.10;4.80;;;;;;;11.69;60.51;100386.80;117265;1186;21884;-59
2021/09/25 04:31:25;;;;;;;;;;;;;;;11.72;60.65;100392.88;117342;1189;21850;-59
2021/09/25 04:33:53;;;;;;;11.30;4.60;;;;;;;11.68;60.90;100392.41;117268;1182;22859;-58
2021/09/25 04:36:21;;;;;;;11.70;5.10;;;;;;;11.71;60.89;100393.42;117261;1186;21877;-59
2021/09/25 04:38:49;;;;;;;10.30;5.10;;;;;;;11.76;60.82;100396.33;117300;1185;23544;-59
2021/09/25 04:41:17;;;;;;;9.40;5.50;;;;;;;11.78;60.72;100397.88;117294;1182;23437;-59
2021/09/25 04:43:45;;;;;;;14.00;4.90;;;;;;;11.81;61.00;100401.54;117305;1188;21850;-58
2021/09/25 04:46:13;;;;;;;12.90;5.10;;;;;;;11.81;61.01;100403.11;117368;1183;22831;-59
2021/09/25 04:48:42;;;;;;;9.90;5.00;;;;;;;11.81;61.07;100405.39;117358;1185;21847;-59
2021/09/25 04:51:10;;;;;;;10.00;5.10;;;;;;;11.85;61.16;100405.68;117329;1186;21883;-59
2021/09/25 04:53:38;;;;;;;9.70;4.70;;;;;;;11.89;61.01;100414.92;117289;1185;21870;-59
2021/09/25 04:56:06;;;;;;;12.90;5.00;;;;;;;11.93;61.07;100418.71;117272;1186;23544;-59
2021/09/25 04:58:34;;;;;;;9.60;4.10;;;;;;;11.95;61.04;100417.98;117342;1183;21857;-59
2021/09/25 05:01:03;;;;;;;7.00;4.00;;;;;;;11.96;60.95;100418.67;117318;1183;22297;-59
2021/09/25 05:03:33;;;;;;;11.20;5.00;;;;;;;12.00;60.85;100419.34;117310;1182;22620;-59
2021/09/25 05:06:02;;;;;;;9.50;4.20;;;;;;;12.01;60.97;100422.31;117355;1183;21854;-59
2021/09/25 05:08:30;;;;;;;9.80;4.00;;;;;;;12.07;61.06;100429.08;117370;1183;22005;-63
2021/09/25 05:10:58;;;;;;;7.10;4.30;;;;;;;12.13;61.11;100431.07;117315;1183;21993;-59
2021/09/25 05:13:27;;;;;;;10.70;4.70;;;;;;;12.23;61.13;100434.06;117301;1186;22622;-59
2021/09/25 05:15:55;;;;;;;15.70;4.90;;;;;;;12.34;61.24;100438.08;117358;1186;21848;-63
2021/09/25 05:18:24;;;;;;;12.90;4.80;;;;;;;12.46;61.16;100437.69;117264;1179;23438;-65
2021/09/25 05:20:52;;;;;;;16.00;4.90;;;;;;;12.57;61.30;100440.81;117373;1185;21858;-60
2021/09/25 05:23:20;;;;;;;8.90;4.10;;;;;;;12.68;61.33;100443.06;117328;1180;21850;-59
2021/09/25 05:25:48;;;;;;;9.30;3.90;;;;;;;12.79;61.20;100450.96;117150;1182;22162;-63
2021/09/25 05:28:16;;;;;;;8.10;4.40;;;;;;;12.88;61.29;100454.64;117385;1183;23567;-59
2021/09/25 05:30:45;;;;;;;10.40;5.20;;;;;;;12.97;61.42;100454.81;117328;1182;21846;-62
2021/09/25 05:33:13;;;;;;;10.90;4.20;;;;;;;13.05;61.33;100459.91;117223;1183;21870;-63
2021/09/25 05:35:42;;;;;;;9.70;4.60;;;;;;;13.12;61.45;100462.77;117293;1185;23540;-63
2021/09/25 05:38:10;;;;;;;10.30;5.10;;;;;;;13.22;61.44;100466.07;117304;1182;21855;-59
2021/09/25 05:40:38;;;;;;;11.80;4.50;;;;;;;13.33;61.44;100469.17;117338;1182;23461;-63
2021/09/25 05:43:06;;;;;;;10.90;4.80;;;;;;;13.45;61.51;100477.25;117368;1185;21863;-62
2021/09/25 05:45:34;;;;;;;11.40;4.50;;;;;;;13.54;61.53;100480.91;117395;1183;22916;-62
2021/09/25 05:48:03;;;;;;;8.50;4.10;;;;;;;13.64;61.65;100479.43;117394;1182;21989;-62
2021/09/25 05:50:31;;;;;;;9.20;4.30;;;;;;;13.72;61.55;100478.37;117316;1185;24163;-58
2021/09/25 05:52:59;;;;;;;10.80;4.70;;;;;;;13.82;61.66;100478.49;117306;1185;23442;-59
2021/09/25 05:55:27;;;;;;;12.60;4.50;;;;;;;13.90;61.66;100482.02;117334;1182;22935;-58
2021/09/25 05:58:01;;;;;;;11.30;4.60;;;;;;;14.00;61.77;100485.46;117474;1185;21908;-61
2021/09/25 06:00:29;;;;;;;13.30;5.30;;;;;;;14.12;61.53;100496.63;117386;1185;24696;-62
2021/09/25 06:02:57;;;;;;;9.50;4.70;;;;;;;14.23;61.65;100497.24;117409;1182;23566;-62
2021/09/25 06:05:26;;;;;;;12.70;4.40;;;;;;;14.32;61.60;100498.96;117384;1185;21870;-61
2021/09/25 06:07:54;;;;;;;12.40;4.20;;;;;;;14.42;61.66;100504.00;117353;1183;24152;-59
2021/09/25 06:10:22;;;;;;;10.50;4.40;;;;;;;14.53;61.68;100507.42;117168;1186;22652;-62
2021/09/25 06:12:50;;;;;;;8.70;3.90;;;;;;;14.65;61.64;100509.75;117333;1182;21858;-59
2021/09/25 06:15:20;;;;;;;12.80;4.10;;;;;;;14.78;61.69;100505.71;117335;1186;22319;-60
2021/09/25 06:17:48;;;;;;;11.30;4.90;;;;;;;14.89;61.77;100506.12;117337;1186;22968;-58
2021/09/25 06:20:16;;;;;;;11.40;4.10;;;;;;;14.98;61.65;100509.77;117412;1186;21853;-58
2021/09/25 06:22:44;;;;;;;11.90;4.60;;;;;;;15.05;61.68;100511.30;117235;1186;21857;-61
2021/09/25 06:25:12;;;;;;;10.30;4.50;;;;;;;15.14;61.66;100521.66;117317;1186;23503;-58
2021/09/25 06:27:40;;;;;;;11.90;3.80;;;;;;;15.23;61.75;100523.50;117357;1186;21861;-61
2021/09/25 06:30:09;;;;;;;9.30;4.60;;;;;;;15.34;61.80;100523.91;117374;1181;22908;-58
2021/09/25 06:32:38;;;;;;;8.40;3.70;;;;;;;15.44;61.80;100524.30;117304;1189;21900;-61
2021/09/25 06:35:08;;;;;;;12.60;4.10;;;;;;;15.55;61.81;100530.54;117301;1183;21857;-61
2021/09/25 06:37:36;;;;;;;8.70;4.00;;;;;;;15.65;61.88;100529.71;117338;1185;21884;-57
2021/09/25 06:40:06;;;;;;;11.80;3.80;;;;;;;15.78;62.04;100536.02;117339;1186;21850;-63
2021/09/25 06:42:34;;;;;;;11.50;4.70;;;;;;;15.93;62.04;100541.77;119031;1185;21827;-63
2021/09/25 06:45:03;;;;;;;10.50;4.20;;;;;;;16.04;62.05;100540.70;117375;1185;21868;-61
2021/09/25 06:47:31;;;;;;;10.60;3.80;;;;;;;16.15;62.10;100542.30;117354;1184;21858;-59
2021/09/25 06:50:00;;;;;;;11.00;4.20;;;;;;;16.25;62.06;100544.98;117345;1182;21873;-62
2021/09/25 06:52:28;;;;;;;7.60;3.60;;;;;;;16.34;62.02;100546.65;117349;1185;22624;-59
2021/09/25 06:54:58;;;;;;;13.80;4.20;;;;;;;16.42;62.04;100548.66;117369;1185;23466;-60
2021/09/25 06:57:26;;;;;;;9.30;4.20;;;;;;;16.55;61.88;100550.36;117330;1186;23442;-59
2021/09/25 06:59:54;;;;;;;10.70;4.70;;;;;;;16.65;61.88;100550.02;117361;1183;23469;-59
2021/09/25 07:02:23;;;;;;;9.10;4.50;;;;;;;16.76;61.77;100551.41;117403;1182;23449;-60
2021/09/25 07:04:52;;;;;;;8.10;3.80;;;;;;;16.82;61.85;100554.20;117438;1183;22889;-59
2021/09/25 07:07:20;;;;;;;11.70;4.40;;;;;;;16.87;61.75;100552.96;117313;1188;21879;-61
2021/09/25 07:09:49;;;;;;;9.50;3.80;;;;;;;16.90;61.75;100556.75;117345;1184;23448;-58
2021/09/25 07:12:18;;;;;;;11.50;4.30;;;;;;;16.98;61.82;100555.25;117303;1183;23440;-61
2021/09/25 07:14:47;;;;;;;9.40;3.40;;;;;;;17.10;61.85;100566.73;117334;1186;23863;-60
2021/09/25 07:17:15;;;;;;;10.90;5.20;;;;;;;17.20;61.76;100577.34;117426;1185;23441;-59
2021/09/25 07:19:43;;;;;;;7.60;3.60;;;;;;;17.28;61.79;100579.02;117331;1183;24197;-60
2021/09/25 07:22:14;;;;;;;8.30;3.00;;;;;;;17.35;61.74;100578.90;117313;1180;21866;-58
2021/09/25 07:24:42;;;;;;;8.70;3.90;;;;;;;17.46;61.73;100585.59;117356;1182;22915;-61
2021/09/25 07:27:10;;;;;;;10.60;3.80;;;;;;;17.53;61.72;100585.70;117389;1185;23465;-60
2021/09/25 07:29:38;;;;;;;8.10;3.70;;;;;;;17.60;61.76;100588.29;117328;1185;21870;-61
2021/09/25 07:32:06;;;;;;;9.50;4.00;;;;;;;17.72;61.97;100585.14;117334;1183;21893;-59
2021/09/25 07:34:34;;;;;;;10.20;3.50;;;;;;;17.90;61.98;100578.41;117341;1185;21857;-57
2021/09/25 07:37:02;;;;;;;8.00;3.40;;;;;;;18.09;62.05;100586.56;117358;1185;21854;-61
2021/09/25 07:39:32;;;;;;;10.90;4.00;;;;;;;18.26;61.93;100585.17;117220;1184;21920;-61
2021/09/25 07:42:01;;;;;;;10.70;3.60;;;;;;;18.33;61.71;100584.00;117397;1185;21861;-59
2021/09/25 07:44:29;;;;;;;10.30;4.00;;;;;;;18.40;61.80;100582.46;117389;1185;21858;-59
2021/09/25 07:46:57;;;;;;;11.60;3.40;;;;;;;18.51;61.73;100588.77;117265;1185;23630;-63
2021/09/25 07:49:26;;;;;;;8.90;3.20;;;;;;;18.64;61.85;100590.90;117419;1183;21859;-61
2021/09/25 07:51:54;;;;;;;9.90;4.00;;;;;;;18.79;61.88;100597.17;117432;1183;22811;-59
2021/09/25 07:54:23;;;;;;;10.50;3.90;;;;;;;18.86;61.64;100600.08;117328;1189;21845;-59
2021/09/25 07:56:51;;;;;;;11.40;3.50;;;;;;;18.87;61.63;100601.80;117474;1185;21867;-58
2021/09/25 07:59:20;;;;;;;7.10;3.70;;;;;;;18.96;61.68;100602.33;117307;1186;21868;-60
2021/09/25 08:01:49;;;;;;;14.30;3.50;;;;;;;19.08;61.85;100594.70;117343;1187;21855;-60
2021/09/25 08:04:17;;;;;;;9.20;3.10;;;;;;;19.22;61.97;100594.09;117352;1184;23570;-59
2021/09/25 08:06:46;;;;;;;9.50;3.00;;;;;;;19.45;61.97;100595.54;117341;1182;21862;-58
2021/09/25 08:09:14;;;;;;;8.00;3.00;;;;;;;19.59;62.05;100592.60;117312;1188;21854;-58
2021/09/25 08:11:42;;;;;;;9.90;2.70;;;;;;;19.70;62.11;100594.04;117313;1182;21867;-60
2021/09/25 08:14:10;;;;;;;9.50;2.60;;;;;;;19.81;62.08;100595.15;117316;1185;21854;-60
2021/09/25 08:16:38;;;;;;;7.20;2.50;;;;;;;19.93;62.02;100591.02;117174;1185;21859;-58
2021/09/25 08:19:06;;;;;;;9.00;2.80;;;;;;;20.08;62.17;100591.41;117346;1185;23516;-58
2021/09/25 08:21:35;;;;;;;7.30;2.30;;;;;;;20.24;62.28;100595.77;117340;1185;21857;-57
2021/09/25 08:24:03;;;;;;;6.20;2.30;;;;;;;20.34;62.34;100596.52;117333;1183;24159;-60
2021/09/25 08:26:33;;;;;;;4.90;2.30;;;;;;;20.41;62.34;100598.67;117379;1180;21859;-60
2021/09/25 08:29:01;;;;;;;9.00;2.70;;;;;;;20.52;62.37;100600.27;117421;1183;23553;-61
2021/09/25 08:31:30;;;;;;;9.60;2.20;;;;;;;20.65;62.24;100599.81;117395;1175;22914;-57
2021/09/25 08:33:58;;;;;;;5.50;2.40;;;;;;;20.74;62.32;100603.09;117339;1183;22449;-60
2021/09/25 08:36:26;;;;;;;6.40;2.10;;;;;;;20.89;62.39;100601.64;117300;1183;21855;-57
2021/09/25 08:39:10;;;;;;;8.80;2.30;;;;;;;21.10;62.44;100599.31;117301;1183;23534;-57
2021/09/25 08:41:38;;;;;;;6.00;2.10;;;;;;;21.29;62.44;100599.16;117306;1182;22613;-60
2021/09/25 08:44:06;;;;;;;6.40;1.90;;;;;;;21.48;62.49;100595.11;117327;1182;21856;-57
2021/09/25 08:46:35;;;;;;;7.90;2.30;;;;;;;21.62;62.39;100596.54;117137;1182;23541;-57
2021/09/25 08:49:04;;;;;;;4.20;1.70;;;;;;;21.72;62.43;100599.58;117392;1185;22883;-57
2021/09/25 08:51:32;;;;;;;5.20;1.90;;;;;;;21.88;62.53;100599.55;117384;1189;21848;-60
2021/09/25 08:54:01;;;;;;;6.80;2.00;;;;;;;22.09;62.46;100596.98;117316;1182;23547;-57
2021/09/25 08:56:30;;;;;;;6.50;1.80;;;;;;;22.21;62.39;100596.80;117388;1182;21882;-58
2021/09/25 08:58:58;;;;;;;16.50;2.60;;;;;;;22.24;62.03;100594.49;117419;1182;24166;-58
2021/09/25 09:01:30;;;;;;;4.90;2.00;;;;;;;22.25;62.05;100598.56;117365;1182;21859;-58
2021/09/25 09:03:59;;;;;;;6.00;1.70;;;;;;;22.22;61.83;100603.56;117356;1182;23320;-60
2021/09/25 09:06:29;;;;;;;5.70;1.40;;;;;;;22.20;61.97;100604.00;117377;1182;22915;-56
2021/09/25 09:09:05;;;;;;;5.80;1.70;;;;;;;22.21;61.90;100602.17;117405;1185;21866;-58
2021/09/25 09:11:39;;;;;;;4.90;1.40;;;;;;;22.02;61.98;100606.80;117395;1183;22908;-57
2021/09/25 09:14:07;;;;;;;6.20;1.20;;;;;;;21.95;62.15;100613.48;117346;1185;22941;-56
2021/09/25 09:16:36;;;;;;;6.10;1.20;;;;;;;22.06;61.95;100609.46;117340;1182;23547;-59
2021/09/25 09:19:04;;;;;;;4.30;1.30;;;;;;;22.08;61.96;100619.73;117281;1183;22945;-58
2021/09/25 09:21:32;;;;;;;5.50;1.30;;;;;;;22.09;61.95;100618.02;117357;1185;23451;-60
2021/09/25 09:24:05;;;;;;;6.00;1.30;;;;;;;22.13;61.87;100619.55;117451;1182;21844;-59
2021/09/25 09:26:34;;;;;;;;;;;;;;;22.19;61.84;100623.17;117350;1183;24978;-58
2021/09/25 09:29:04;;;;;;;7.20;1.10;;;;;;;22.34;62.12;100621.98;117331;1182;23484;-59
2021/09/25 09:31:33;;;;;;;4.50;1.10;;;;;;;22.50;62.08;100623.96;117354;1183;23544;-57
2021/09/25 09:34:03;;;;;;;6.20;1.40;;;;;;;22.61;61.96;100621.35;117405;1184;23568;-59
2021/09/25 09:36:41;;;;;;;4.30;1.20;;;;;;;22.61;61.83;100616.86;117167;1185;21859;-56
2021/09/25 09:39:20;;;;;;;3.60;1.30;;;;;;;22.54;61.39;100613.16;117366;1185;21865;-57
2021/09/25 09:41:52;;;;;;;3.60;1.10;;;;;;;22.56;61.59;100614.86;117365;1186;22925;-59
2021/09/25 09:44:31;;;;;;;5.30;1.20;;;;;;;22.61;61.78;100620.27;117412;1185;21980;-57
2021/09/25 09:47:03;;;;;;;4.70;1.00;;;;;;;22.71;61.79;100621.67;117330;1182;21867;-57
2021/09/25 09:49:38;;;;;;;4.00;1.40;;;;;;;22.86;62.02;100619.17;117391;1183;23467;-59
2021/09/25 09:52:08;;;;;;;6.50;1.50;;;;;;;23.09;62.25;100618.87;117329;1185;21855;-59
2021/09/25 09:54:37;;;;;;;5.50;1.40;;;;;;;23.26;62.11;100619.27;117343;1186;22989;-57
2021/09/25 09:57:17;;;;;;;6.20;2.00;;;;;;;23.40;61.78;100628.80;117338;1182;22963;-58
2021/09/25 09:59:46;;;;;;;6.80;2.10;;;;;;;23.50;61.43;100631.77;117345;1185;21856;-57
2021/09/25 10:02:15;;;;;;;5.60;1.50;;;;;;;23.53;61.31;100629.95;117345;1189;21855;-57
2021/09/25 10:04:44;;;;;;;5.90;1.50;;;;;;;23.56;61.19;100630.11;118561;1183;24172;-57
2021/09/25 10:07:12;;;;;;;9.00;2.70;;;;;;;23.47;61.02;100635.70;117341;1183;21929;-58
2021/09/25 10:09:40;;;;;;;5.50;1.70;;;;;;;23.31;60.99;100635.63;117331;1182;24162;-58
2021/09/25 10:12:11;;;;;;;5.30;1.60;;;;;;;23.16;60.91;100639.19;117488;1185;23556;-58
2021/09/25 10:14:41;;;;;;;9.60;1.60;;;;;;;22.98;61.22;100643.11;117295;1186;21861;-60
2021/09/25 10:17:11;;;;;;;7.50;1.50;;;;;;;22.94;61.30;100642.11;117355;1184;23570;-59
2021/09/25 10:19:41;;;;;;;7.80;1.60;;;;;;;22.89;61.23;100643.29;117379;1185;22918;-60
2021/09/25 10:22:24;;;;;;;6.30;1.80;;;;;;;22.78;61.15;100642.15;117205;1186;23464;-59
2021/09/25 10:24:56;;;;;;;5.40;1.40;;;;;;;22.68;61.19;100643.83;117104;1183;22926;-57
2021/09/25 10:27:37;;;;;;;5.00;1.60;;;;;;;22.72;61.37;100649.69;117265;1188;21902;-57
2021/09/25 10:30:07;;;;;;;4.90;1.80;;;;;;;22.69;61.35;100649.15;117325;1183;21880;-58
2021/09/25 10:32:42;;;;;;;6.60;1.80;;;;;;;22.55;60.79;100649.97;117379;1185;24233;-59
2021/09/25 10:35:17;;;;;;;6.40;1.50;;;;;;;22.25;60.43;100647.52;117342;1185;21899;-59
2021/09/25 10:38:05;;;;;;;8.20;1.90;;;;;;;22.16;60.92;100644.11;117395;1185;21859;-59
2021/09/25 10:40:54;;;;;;;5.60;2.40;;;;;;;22.21;61.08;100644.35;117268;1176;22830;-58
2021/09/25 10:43:24;;;;;;;6.60;1.80;;;;;;;22.21;60.93;100650.23;117132;1178;21877;-58
2021/09/25 10:45:55;;;;;;;7.30;1.80;;;;;;;22.21;60.81;100648.85;117359;1183;23432;-59
2021/09/25 10:48:23;;;;;;;9.50;1.90;;;;;;;22.19;60.94;100650.55;117300;1182;21896;-59
2021/09/25 10:50:54;;;;;;;6.60;2.10;;;;;;;22.22;61.18;100658.24;117404;1185;21869;-59
2021/09/25 10:53:27;;;;;;;9.30;1.90;;;;;;;22.37;61.43;100664.74;117364;1182;21988;-59
2021/09/25 10:55:57;;;;;;;6.70;2.20;;;;;;;22.65;61.90;100662.42;117397;1184;21861;-59
2021/09/25 10:58:25;;;;;;;6.40;1.90;;;;;;;22.94;61.57;100660.34;117346;1183;21874;-57
2021/09/25 11:01:10;;;;;;;6.40;1.90;;;;;;;23.16;61.11;100664.63;117308;1183;21855;-57
2021/09/25 11:03:42;;;;;;;7.20;2.10;;;;;;;23.18;60.80;100661.06;117407;1183;22333;-58
2021/09/25 11:06:30;;;;;;;9.90;2.20;;;;;;;23.12;61.00;100662.52;117373;1185;23601;-59
2021/09/25 11:09:02;;;;;;;6.30;2.10;;;;;;;23.20;61.26;100660.79;117325;1183;21864;-58
2021/09/25 11:11:30;;;;;;;7.20;2.00;;;;;;;23.28;61.28;100662.83;117393;1185;23490;-58
2021/09/25 11:14:02;;;;;;;7.40;2.20;;;;;;;23.42;61.36;100660.20;117352;1182;23547;-58
2021/09/25 11:17:04;;;;;;;6.90;2.40;;;;;;;23.66;61.59;100663.02;117377;1185;21859;-59
2021/09/25 11:19:35;;;;;;;15.60;3.80;;;;;;;23.88;61.46;100660.58;117345;1184;21856;-59
2021/09/25 11:22:03;;;;;;;6.70;1.80;;;;;;;23.87;60.93;100668.32;117348;1185;21881;-58
2021/09/25 11:24:57;;;;;;;9.60;2.40;;;;;;;23.66;60.76;100672.88;117328;1185;21878;-57
2021/09/25 11:27:33;;;;;;;8.40;1.80;;;;;;;23.34;60.32;100671.23;117383;1182;21874;-57
2021/09/25 11:30:15;;;;;;;6.90;2.10;;;;;;;23.07;60.50;100667.48;117367;1185;23481;-59